sensor_id;sensor_type;location;lat;lon;timestamp;P1;durP1;ratioP1;P2;durP2;ratioP2
84411;SDS011;74609;44.028;20.950;2024-03-23T00:56:03;23.02;;;13.80;;
84411;SDS011;74609;44.028;20.950;2024-03-23T00:58:30;24.42;;;14.35;;
84411;SDS011;74609;44.028;20.950;2024-03-23T01:00:56;16.63;;;10.15;;
84411;SDS011;74609;44.028;20.950;2024-03-23T01:03:22;16.08;;;10.02;;
84411;SDS011;74609;44.028;20.950;2024-03-23T01:05:48;16.25;;;9.65;;
84411;SDS011;74609;44.028;20.950;2024-03-23T01:08:14;16.20;;;9.40;;
84411;SDS011;74609;44.028;20.950;2024-03-23T01:10:40;12.88;;;8.52;;
84411;SDS011;74609;44.028;20.950;2024-03-23T01:13:06;17.35;;;9.80;;
84411;SDS011;74609;44.028;20.950;2024-03-23T01:15:33;15.32;;;9.52;;
84411;SDS011;74609;44.028;20.950;2024-03-23T01:17:59;16.75;;;10.18;;
84411;SDS011;74609;44.028;20.950;2024-03-23T01:20:25;17.15;;;10.07;;
84411;SDS011;74609;44.028;20.950;2024-03-23T01:22:52;15.73;;;9.80;;
84411;SDS011;74609;44.028;20.950;2024-03-23T01:25:18;16.25;;;9.15;;
84411;SDS011;74609;44.028;20.950;2024-03-23T01:27:44;17.77;;;9.52;;
84411;SDS011;74609;44.028;20.950;2024-03-23T01:30:11;16.55;;;10.82;;
84411;SDS011;74609;44.028;20.950;2024-03-23T01:32:38;17.33;;;11.10;;
84411;SDS011;74609;44.028;20.950;2024-03-23T01:35:05;21.80;;;12.15;;
84411;SDS011;74609;44.028;20.950;2024-03-23T01:37:31;21.48;;;11.95;;
84411;SDS011;74609;44.028;20.950;2024-03-23T01:39:57;18.98;;;11.25;;
84411;SDS011;74609;44.028;20.950;2024-03-23T01:42:23;18.05;;;10.95;;
84411;SDS011;74609;44.028;20.950;2024-03-23T01:44:49;17.30;;;10.75;;
84411;SDS011;74609;44.028;20.950;2024-03-23T01:47:15;18.70;;;11.20;;
84411;SDS011;74609;44.028;20.950;2024-03-23T01:49:42;19.20;;;11.32;;
84411;SDS011;74609;44.028;20.950;2024-03-23T01:52:08;16.65;;;10.38;;
84411;SDS011;74609;44.028;20.950;2024-03-23T01:54:35;18.30;;;10.98;;
84411;SDS011;74609;44.028;20.950;2024-03-23T01:57:01;15.95;;;10.30;;
84411;SDS011;74609;44.028;20.950;2024-03-23T01:59:27;17.13;;;11.73;;
84411;SDS011;74609;44.028;20.950;2024-03-23T02:01:53;17.55;;;10.75;;
84411;SDS011;74609;44.028;20.950;2024-03-23T02:04:22;17.00;;;10.30;;
84411;SDS011;74609;44.028;20.950;2024-03-23T02:06:48;17.70;;;10.82;;
84411;SDS011;74609;44.028;20.950;2024-03-23T02:09:14;20.25;;;10.85;;
84411;SDS011;74609;44.028;20.950;2024-03-23T02:11:40;17.65;;;11.52;;
84411;SDS011;74609;44.028;20.950;2024-03-23T02:14:07;18.15;;;9.98;;
84411;SDS011;74609;44.028;20.950;2024-03-23T02:16:33;16.65;;;10.18;;
84411;SDS011;74609;44.028;20.950;2024-03-23T02:18:59;20.42;;;11.18;;
84411;SDS011;74609;44.028;20.950;2024-03-23T02:21:25;19.90;;;11.05;;
84411;SDS011;74609;44.028;20.950;2024-03-23T02:23:52;18.27;;;10.55;;
84411;SDS011;74609;44.028;20.950;2024-03-23T02:26:18;15.73;;;9.65;;
84411;SDS011;74609;44.028;20.950;2024-03-23T02:28:44;15.48;;;10.82;;
84411;SDS011;74609;44.028;20.950;2024-03-23T02:31:11;16.95;;;10.18;;
84411;SDS011;74609;44.028;20.950;2024-03-23T02:33:37;16.65;;;10.30;;
84411;SDS011;74609;44.028;20.950;2024-03-23T02:36:03;19.08;;;10.25;;
84411;SDS011;74609;44.028;20.950;2024-03-23T02:38:29;16.92;;;10.98;;
84411;SDS011;74609;44.028;20.950;2024-03-23T02:41:00;20.30;;;10.70;;
84411;SDS011;74609;44.028;20.950;2024-03-23T02:43:26;15.18;;;8.70;;
84411;SDS011;74609;44.028;20.950;2024-03-23T02:45:53;16.05;;;9.43;;
84411;SDS011;74609;44.028;20.950;2024-03-23T02:48:22;16.70;;;9.43;;
84411;SDS011;74609;44.028;20.950;2024-03-23T02:50:48;13.18;;;7.97;;
84411;SDS011;74609;44.028;20.950;2024-03-23T02:53:15;14.57;;;8.48;;
84411;SDS011;74609;44.028;20.950;2024-03-23T02:55:42;14.82;;;9.35;;
84411;SDS011;74609;44.028;20.950;2024-03-23T02:58:08;14.43;;;8.27;;
84411;SDS011;74609;44.028;20.950;2024-03-23T03:00:34;14.55;;;9.18;;
84411;SDS011;74609;44.028;20.950;2024-03-23T03:03:00;13.07;;;8.20;;
84411;SDS011;74609;44.028;20.950;2024-03-23T03:05:28;12.82;;;8.05;;
84411;SDS011;74609;44.028;20.950;2024-03-23T03:07:54;16.92;;;9.10;;
84411;SDS011;74609;44.028;20.950;2024-03-23T03:10:20;12.52;;;7.85;;
84411;SDS011;74609;44.028;20.950;2024-03-23T03:12:46;14.60;;;8.77;;
84411;SDS011;74609;44.028;20.950;2024-03-23T03:15:12;14.98;;;7.80;;
84411;SDS011;74609;44.028;20.950;2024-03-23T03:17:38;14.77;;;8.85;;
84411;SDS011;74609;44.028;20.950;2024-03-23T03:20:05;13.82;;;8.68;;
84411;SDS011;74609;44.028;20.950;2024-03-23T03:22:31;14.40;;;8.73;;
84411;SDS011;74609;44.028;20.950;2024-03-23T03:24:57;15.98;;;9.00;;
84411;SDS011;74609;44.028;20.950;2024-03-23T03:27:25;14.85;;;8.93;;
84411;SDS011;74609;44.028;20.950;2024-03-23T03:29:51;14.20;;;8.43;;
84411;SDS011;74609;44.028;20.950;2024-03-23T03:32:17;15.30;;;9.38;;
84411;SDS011;74609;44.028;20.950;2024-03-23T03:34:43;13.82;;;8.70;;
84411;SDS011;74609;44.028;20.950;2024-03-23T03:37:09;13.73;;;8.60;;
84411;SDS011;74609;44.028;20.950;2024-03-23T03:39:35;13.85;;;8.32;;
84411;SDS011;74609;44.028;20.950;2024-03-23T03:42:02;11.27;;;7.63;;
84411;SDS011;74609;44.028;20.950;2024-03-23T03:44:31;12.00;;;7.68;;
84411;SDS011;74609;44.028;20.950;2024-03-23T03:46:57;15.35;;;8.52;;
84411;SDS011;74609;44.028;20.950;2024-03-23T03:49:23;13.20;;;7.90;;
84411;SDS011;74609;44.028;20.950;2024-03-23T03:51:50;13.73;;;8.25;;
84411;SDS011;74609;44.028;20.950;2024-03-23T03:54:16;12.73;;;8.13;;
84411;SDS011;74609;44.028;20.950;2024-03-23T03:56:42;11.77;;;8.23;;
84411;SDS011;74609;44.028;20.950;2024-03-23T03:59:08;12.65;;;8.02;;
84411;SDS011;74609;44.028;20.950;2024-03-23T04:01:34;13.18;;;7.97;;
84411;SDS011;74609;44.028;20.950;2024-03-23T04:04:01;12.02;;;7.47;;
84411;SDS011;74609;44.028;20.950;2024-03-23T04:06:27;12.90;;;7.75;;
84411;SDS011;74609;44.028;20.950;2024-03-23T04:08:53;13.35;;;7.07;;
84411;SDS011;74609;44.028;20.950;2024-03-23T04:11:19;13.63;;;8.60;;
84411;SDS011;74609;44.028;20.950;2024-03-23T04:13:45;12.30;;;7.93;;
84411;SDS011;74609;44.028;20.950;2024-03-23T04:16:12;10.73;;;7.88;;
84411;SDS011;74609;44.028;20.950;2024-03-23T04:18:38;12.63;;;7.80;;
84411;SDS011;74609;44.028;20.950;2024-03-23T04:21:04;12.25;;;7.68;;
84411;SDS011;74609;44.028;20.950;2024-03-23T04:23:30;12.38;;;7.93;;
84411;SDS011;74609;44.028;20.950;2024-03-23T04:26:02;12.00;;;7.55;;
84411;SDS011;74609;44.028;20.950;2024-03-23T04:28:28;12.20;;;7.75;;
84411;SDS011;74609;44.028;20.950;2024-03-23T04:30:54;12.90;;;7.80;;
84411;SDS011;74609;44.028;20.950;2024-03-23T04:33:20;13.27;;;7.75;;
84411;SDS011;74609;44.028;20.950;2024-03-23T04:35:48;11.63;;;7.57;;
84411;SDS011;74609;44.028;20.950;2024-03-23T04:38:15;11.05;;;7.57;;
84411;SDS011;74609;44.028;20.950;2024-03-23T04:40:41;12.70;;;7.07;;
84411;SDS011;74609;44.028;20.950;2024-03-23T04:43:07;10.18;;;6.72;;
84411;SDS011;74609;44.028;20.950;2024-03-23T04:45:33;12.35;;;7.47;;
84411;SDS011;74609;44.028;20.950;2024-03-23T04:48:00;12.18;;;7.30;;
84411;SDS011;74609;44.028;20.950;2024-03-23T04:50:26;12.57;;;7.70;;
84411;SDS011;74609;44.028;20.950;2024-03-23T04:52:52;11.70;;;7.93;;
84411;SDS011;74609;44.028;20.950;2024-03-23T04:55:18;14.07;;;7.72;;
84411;SDS011;74609;44.028;20.950;2024-03-23T04:57:45;13.40;;;7.65;;
84411;SDS011;74609;44.028;20.950;2024-03-23T05:00:11;12.20;;;7.32;;
84411;SDS011;74609;44.028;20.950;2024-03-23T05:02:44;11.77;;;7.32;;
84411;SDS011;74609;44.028;20.950;2024-03-23T05:05:11;9.93;;;6.05;;
84411;SDS011;74609;44.028;20.950;2024-03-23T05:07:37;9.80;;;6.47;;
84411;SDS011;74609;44.028;20.950;2024-03-23T05:10:03;11.40;;;6.05;;
84411;SDS011;74609;44.028;20.950;2024-03-23T05:12:29;10.88;;;6.72;;
84411;SDS011;74609;44.028;20.950;2024-03-23T05:14:56;11.02;;;7.90;;
84411;SDS011;74609;44.028;20.950;2024-03-23T05:17:22;13.93;;;8.23;;
84411;SDS011;74609;44.028;20.950;2024-03-23T05:19:48;11.43;;;7.47;;
84411;SDS011;74609;44.028;20.950;2024-03-23T05:22:14;15.65;;;8.60;;
84411;SDS011;74609;44.028;20.950;2024-03-23T05:24:41;13.05;;;8.10;;
84411;SDS011;74609;44.028;20.950;2024-03-23T05:27:07;11.57;;;7.38;;
84411;SDS011;74609;44.028;20.950;2024-03-23T05:29:33;12.35;;;7.55;;
84411;SDS011;74609;44.028;20.950;2024-03-23T05:31:59;11.45;;;7.60;;
84411;SDS011;74609;44.028;20.950;2024-03-23T05:34:25;11.93;;;7.80;;
84411;SDS011;74609;44.028;20.950;2024-03-23T05:36:51;10.10;;;7.07;;
84411;SDS011;74609;44.028;20.950;2024-03-23T05:39:17;11.75;;;7.65;;
84411;SDS011;74609;44.028;20.950;2024-03-23T05:41:47;9.85;;;7.38;;
84411;SDS011;74609;44.028;20.950;2024-03-23T05:44:13;13.73;;;7.88;;
84411;SDS011;74609;44.028;20.950;2024-03-23T05:46:40;10.43;;;6.68;;
84411;SDS011;74609;44.028;20.950;2024-03-23T05:49:06;9.93;;;6.68;;
84411;SDS011;74609;44.028;20.950;2024-03-23T05:51:32;9.32;;;6.53;;
84411;SDS011;74609;44.028;20.950;2024-03-23T05:53:58;9.75;;;6.72;;
84411;SDS011;74609;44.028;20.950;2024-03-23T05:56:24;10.85;;;6.63;;
84411;SDS011;74609;44.028;20.950;2024-03-23T05:58:53;8.65;;;5.90;;
84411;SDS011;74609;44.028;20.950;2024-03-23T06:01:19;10.88;;;6.53;;
84411;SDS011;74609;44.028;20.950;2024-03-23T06:03:45;8.73;;;6.70;;
84411;SDS011;74609;44.028;20.950;2024-03-23T06:06:11;9.73;;;7.05;;
84411;SDS011;74609;44.028;20.950;2024-03-23T06:08:38;9.38;;;6.72;;
84411;SDS011;74609;44.028;20.950;2024-03-23T06:11:04;7.20;;;5.75;;
84411;SDS011;74609;44.028;20.950;2024-03-23T06:13:33;9.32;;;6.20;;
84411;SDS011;74609;44.028;20.950;2024-03-23T06:16:00;13.02;;;6.20;;
84411;SDS011;74609;44.028;20.950;2024-03-23T06:18:26;8.65;;;5.82;;
84411;SDS011;74609;44.028;20.950;2024-03-23T06:20:53;8.70;;;5.90;;
84411;SDS011;74609;44.028;20.950;2024-03-23T06:23:19;10.75;;;5.97;;
84411;SDS011;74609;44.028;20.950;2024-03-23T06:25:45;8.60;;;5.95;;
84411;SDS011;74609;44.028;20.950;2024-03-23T06:28:12;9.60;;;6.10;;
84411;SDS011;74609;44.028;20.950;2024-03-23T06:30:38;8.55;;;5.95;;
84411;SDS011;74609;44.028;20.950;2024-03-23T06:33:04;9.45;;;5.82;;
84411;SDS011;74609;44.028;20.950;2024-03-23T06:35:33;9.90;;;6.28;;
84411;SDS011;74609;44.028;20.950;2024-03-23T06:37:59;8.75;;;6.22;;
84411;SDS011;74609;44.028;20.950;2024-03-23T06:40:26;10.00;;;5.72;;
84411;SDS011;74609;44.028;20.950;2024-03-23T06:42:52;9.07;;;6.28;;
84411;SDS011;74609;44.028;20.950;2024-03-23T06:45:18;8.40;;;5.95;;
84411;SDS011;74609;44.028;20.950;2024-03-23T06:47:48;8.50;;;6.20;;
84411;SDS011;74609;44.028;20.950;2024-03-23T06:50:14;8.45;;;5.55;;
84411;SDS011;74609;44.028;20.950;2024-03-23T06:52:41;9.55;;;6.05;;
84411;SDS011;74609;44.028;20.950;2024-03-23T06:55:07;7.38;;;5.68;;
84411;SDS011;74609;44.028;20.950;2024-03-23T06:57:33;9.77;;;6.90;;
84411;SDS011;74609;44.028;20.950;2024-03-23T07:00:00;8.23;;;6.35;;
84411;SDS011;74609;44.028;20.950;2024-03-23T07:02:26;8.73;;;6.05;;
84411;SDS011;74609;44.028;20.950;2024-03-23T07:04:53;8.25;;;6.15;;
84411;SDS011;74609;44.028;20.950;2024-03-23T07:07:19;9.82;;;6.05;;
84411;SDS011;74609;44.028;20.950;2024-03-23T07:09:45;8.45;;;6.45;;
84411;SDS011;74609;44.028;20.950;2024-03-23T07:12:11;9.45;;;6.25;;
84411;SDS011;74609;44.028;20.950;2024-03-23T07:14:37;7.43;;;6.10;;
84411;SDS011;74609;44.028;20.950;2024-03-23T07:17:03;6.50;;;5.32;;
84411;SDS011;74609;44.028;20.950;2024-03-23T07:19:30;7.80;;;6.40;;
84411;SDS011;74609;44.028;20.950;2024-03-23T07:21:56;9.02;;;6.50;;
84411;SDS011;74609;44.028;20.950;2024-03-23T07:24:22;9.48;;;6.15;;
84411;SDS011;74609;44.028;20.950;2024-03-23T07:26:48;8.95;;;6.32;;
84411;SDS011;74609;44.028;20.950;2024-03-23T07:29:16;7.15;;;6.05;;
84411;SDS011;74609;44.028;20.950;2024-03-23T07:31:42;8.85;;;6.03;;
84411;SDS011;74609;44.028;20.950;2024-03-23T07:34:08;8.73;;;6.10;;
84411;SDS011;74609;44.028;20.950;2024-03-23T07:36:34;9.68;;;7.10;;
84411;SDS011;74609;44.028;20.950;2024-03-23T07:39:00;7.57;;;5.82;;
84411;SDS011;74609;44.028;20.950;2024-03-23T07:41:27;8.50;;;5.80;;
84411;SDS011;74609;44.028;20.950;2024-03-23T07:43:55;7.65;;;5.63;;
84411;SDS011;74609;44.028;20.950;2024-03-23T07:46:21;9.93;;;6.85;;
84411;SDS011;74609;44.028;20.950;2024-03-23T07:48:48;8.57;;;6.63;;
84411;SDS011;74609;44.028;20.950;2024-03-23T07:51:21;12.02;;;6.70;;
84411;SDS011;74609;44.028;20.950;2024-03-23T07:53:50;9.25;;;5.97;;
84411;SDS011;74609;44.028;20.950;2024-03-23T07:56:17;7.72;;;6.10;;
84411;SDS011;74609;44.028;20.950;2024-03-23T07:58:44;8.43;;;6.13;;
84411;SDS011;74609;44.028;20.950;2024-03-23T08:01:11;9.00;;;6.05;;
84411;SDS011;74609;44.028;20.950;2024-03-23T08:03:39;7.75;;;5.70;;
84411;SDS011;74609;44.028;20.950;2024-03-23T08:06:13;7.72;;;5.82;;
84411;SDS011;74609;44.028;20.950;2024-03-23T08:08:40;8.23;;;5.95;;
84411;SDS011;74609;44.028;20.950;2024-03-23T08:11:06;8.23;;;6.18;;
84411;SDS011;74609;44.028;20.950;2024-03-23T08:13:33;6.97;;;5.63;;
84411;SDS011;74609;44.028;20.950;2024-03-23T08:15:59;9.15;;;6.72;;
84411;SDS011;74609;44.028;20.950;2024-03-23T08:18:26;9.10;;;6.30;;
84411;SDS011;74609;44.028;20.950;2024-03-23T08:20:59;8.52;;;6.07;;
84411;SDS011;74609;44.028;20.950;2024-03-23T08:23:25;6.88;;;5.80;;
84411;SDS011;74609;44.028;20.950;2024-03-23T08:25:52;8.05;;;6.22;;
84411;SDS011;74609;44.028;20.950;2024-03-23T08:28:18;8.57;;;6.28;;
84411;SDS011;74609;44.028;20.950;2024-03-23T08:30:44;7.95;;;5.50;;
84411;SDS011;74609;44.028;20.950;2024-03-23T08:33:10;7.97;;;6.32;;
84411;SDS011;74609;44.028;20.950;2024-03-23T08:35:39;8.27;;;5.68;;
84411;SDS011;74609;44.028;20.950;2024-03-23T08:38:05;5.93;;;5.07;;
84411;SDS011;74609;44.028;20.950;2024-03-23T08:40:32;9.85;;;6.22;;
84411;SDS011;74609;44.028;20.950;2024-03-23T08:42:58;7.88;;;5.88;;
84411;SDS011;74609;44.028;20.950;2024-03-23T08:45:24;7.93;;;5.80;;
84411;SDS011;74609;44.028;20.950;2024-03-23T08:47:51;7.15;;;5.45;;
84411;SDS011;74609;44.028;20.950;2024-03-23T08:50:18;7.05;;;5.68;;
84411;SDS011;74609;44.028;20.950;2024-03-23T08:52:44;6.45;;;5.22;;
84411;SDS011;74609;44.028;20.950;2024-03-23T08:55:10;7.20;;;5.70;;
84411;SDS011;74609;44.028;20.950;2024-03-23T08:57:36;6.47;;;5.30;;
84411;SDS011;74609;44.028;20.950;2024-03-23T09:00:03;8.27;;;5.60;;
84411;SDS011;74609;44.028;20.950;2024-03-23T09:02:31;7.68;;;5.68;;
84411;SDS011;74609;44.028;20.950;2024-03-23T09:04:57;7.75;;;5.55;;
84411;SDS011;74609;44.028;20.950;2024-03-23T09:07:29;7.13;;;5.47;;
84411;SDS011;74609;44.028;20.950;2024-03-23T09:09:55;7.07;;;5.15;;
84411;SDS011;74609;44.028;20.950;2024-03-23T09:12:21;7.18;;;5.20;;
84411;SDS011;74609;44.028;20.950;2024-03-23T09:14:48;7.20;;;5.65;;
84411;SDS011;74609;44.028;20.950;2024-03-23T09:17:14;9.98;;;5.95;;
84411;SDS011;74609;44.028;20.950;2024-03-23T09:19:41;7.00;;;5.53;;
84411;SDS011;74609;44.028;20.950;2024-03-23T09:22:07;8.90;;;5.50;;
84411;SDS011;74609;44.028;20.950;2024-03-23T09:24:33;6.50;;;4.72;;
84411;SDS011;74609;44.028;20.950;2024-03-23T09:26:59;7.38;;;5.25;;
84411;SDS011;74609;44.028;20.950;2024-03-23T09:29:25;7.78;;;5.55;;
84411;SDS011;74609;44.028;20.950;2024-03-23T09:31:51;6.40;;;5.35;;
84411;SDS011;74609;44.028;20.950;2024-03-23T09:34:17;6.60;;;5.38;;
84411;SDS011;74609;44.028;20.950;2024-03-23T09:36:43;6.38;;;5.28;;
84411;SDS011;74609;44.028;20.950;2024-03-23T09:39:10;7.75;;;5.18;;
84411;SDS011;74609;44.028;20.950;2024-03-23T09:41:37;8.55;;;5.72;;
84411;SDS011;74609;44.028;20.950;2024-03-23T09:44:03;5.90;;;4.70;;
84411;SDS011;74609;44.028;20.950;2024-03-23T09:46:30;7.82;;;5.38;;
84411;SDS011;74609;44.028;20.950;2024-03-23T09:48:59;6.95;;;5.45;;
84411;SDS011;74609;44.028;20.950;2024-03-23T09:51:26;6.47;;;5.43;;
84411;SDS011;74609;44.028;20.950;2024-03-23T09:53:52;5.70;;;5.15;;
84411;SDS011;74609;44.028;20.950;2024-03-23T09:56:19;6.25;;;4.75;;
84411;SDS011;74609;44.028;20.950;2024-03-23T09:58:45;6.93;;;5.43;;
84411;SDS011;74609;44.028;20.950;2024-03-23T10:01:11;6.60;;;4.90;;
84411;SDS011;74609;44.028;20.950;2024-03-23T10:03:44;6.20;;;5.07;;
84411;SDS011;74609;44.028;20.950;2024-03-23T10:06:11;6.70;;;4.90;;
84411;SDS011;74609;44.028;20.950;2024-03-23T10:08:37;6.75;;;4.97;;
84411;SDS011;74609;44.028;20.950;2024-03-23T10:11:16;6.55;;;4.80;;
84411;SDS011;74609;44.028;20.950;2024-03-23T10:13:43;5.82;;;4.78;;
84411;SDS011;74609;44.028;20.950;2024-03-23T10:16:09;6.00;;;4.78;;
84411;SDS011;74609;44.028;20.950;2024-03-23T10:18:39;7.15;;;4.78;;
84411;SDS011;74609;44.028;20.950;2024-03-23T10:23:32;6.28;;;5.00;;
84411;SDS011;74609;44.028;20.950;2024-03-23T10:26:40;5.25;;;4.75;;
84411;SDS011;74609;44.028;20.950;2024-03-23T10:28:57;6.22;;;4.90;;
84411;SDS011;74609;44.028;20.950;2024-03-23T10:31:28;6.03;;;4.72;;
84411;SDS011;74609;44.028;20.950;2024-03-23T10:33:55;7.13;;;4.88;;
84411;SDS011;74609;44.028;20.950;2024-03-23T10:36:22;5.10;;;4.22;;
84411;SDS011;74609;44.028;20.950;2024-03-23T10:38:51;5.85;;;4.63;;
84411;SDS011;74609;44.028;20.950;2024-03-23T10:41:17;5.65;;;4.65;;
84411;SDS011;74609;44.028;20.950;2024-03-23T10:43:47;6.75;;;4.97;;
84411;SDS011;74609;44.028;20.950;2024-03-23T10:46:14;7.45;;;4.85;;
84411;SDS011;74609;44.028;20.950;2024-03-23T10:48:40;6.78;;;4.80;;
84411;SDS011;74609;44.028;20.950;2024-03-23T10:51:07;5.85;;;4.75;;
84411;SDS011;74609;44.028;20.950;2024-03-23T10:53:34;5.45;;;4.38;;
84411;SDS011;74609;44.028;20.950;2024-03-23T10:56:02;6.22;;;4.47;;
84411;SDS011;74609;44.028;20.950;2024-03-23T10:58:33;5.38;;;4.38;;
84411;SDS011;74609;44.028;20.950;2024-03-23T11:01:01;4.63;;;4.13;;
84411;SDS011;74609;44.028;20.950;2024-03-23T11:05:57;5.60;;;4.22;;
84411;SDS011;74609;44.028;20.950;2024-03-23T11:08:30;4.53;;;4.07;;
84411;SDS011;74609;44.028;20.950;2024-03-23T11:11:13;5.20;;;3.97;;
84411;SDS011;74609;44.028;20.950;2024-03-23T11:13:39;4.88;;;4.10;;
84411;SDS011;74609;44.028;20.950;2024-03-23T11:18:53;6.30;;;4.50;;
84411;SDS011;74609;44.028;20.950;2024-03-23T11:24:14;5.93;;;4.35;;
84411;SDS011;74609;44.028;20.950;2024-03-23T11:26:40;7.03;;;4.25;;
84411;SDS011;74609;44.028;20.950;2024-03-23T11:29:09;5.20;;;4.20;;
84411;SDS011;74609;44.028;20.950;2024-03-23T11:31:44;5.07;;;4.50;;
84411;SDS011;74609;44.028;20.950;2024-03-23T11:34:11;4.65;;;3.70;;
84411;SDS011;74609;44.028;20.950;2024-03-23T11:36:37;5.72;;;4.55;;
84411;SDS011;74609;44.028;20.950;2024-03-23T11:39:13;5.32;;;4.20;;
84411;SDS011;74609;44.028;20.950;2024-03-23T11:41:47;5.63;;;3.80;;
84411;SDS011;74609;44.028;20.950;2024-03-23T11:44:20;5.95;;;4.10;;
84411;SDS011;74609;44.028;20.950;2024-03-23T11:46:50;4.80;;;3.70;;
84411;SDS011;74609;44.028;20.950;2024-03-23T11:51:47;4.65;;;3.92;;
84411;SDS011;74609;44.028;20.950;2024-03-23T11:54:13;5.35;;;3.85;;
84411;SDS011;74609;44.028;20.950;2024-03-23T11:56:40;4.40;;;3.72;;
84411;SDS011;74609;44.028;20.950;2024-03-23T11:59:06;4.15;;;3.65;;
84411;SDS011;74609;44.028;20.950;2024-03-23T12:01:33;6.53;;;3.78;;
84411;SDS011;74609;44.028;20.950;2024-03-23T12:03:59;4.88;;;4.05;;
84411;SDS011;74609;44.028;20.950;2024-03-23T12:06:25;5.97;;;3.67;;
84411;SDS011;74609;44.028;20.950;2024-03-23T12:08:51;4.00;;;3.42;;
84411;SDS011;74609;44.028;20.950;2024-03-23T12:11:17;5.32;;;3.65;;
84411;SDS011;74609;44.028;20.950;2024-03-23T12:13:44;5.70;;;3.95;;
84411;SDS011;74609;44.028;20.950;2024-03-23T12:16:12;6.78;;;4.20;;
84411;SDS011;74609;44.028;20.950;2024-03-23T12:18:39;4.43;;;3.78;;
84411;SDS011;74609;44.028;20.950;2024-03-23T12:21:06;5.00;;;3.90;;
84411;SDS011;74609;44.028;20.950;2024-03-23T12:23:32;4.97;;;3.65;;
84411;SDS011;74609;44.028;20.950;2024-03-23T12:25:58;5.38;;;3.85;;
84411;SDS011;74609;44.028;20.950;2024-03-23T12:28:25;5.40;;;3.75;;
84411;SDS011;74609;44.028;20.950;2024-03-23T12:30:51;3.85;;;3.35;;
84411;SDS011;74609;44.028;20.950;2024-03-23T12:33:21;4.75;;;3.90;;
84411;SDS011;74609;44.028;20.950;2024-03-23T12:35:47;5.03;;;3.63;;
84411;SDS011;74609;44.028;20.950;2024-03-23T12:38:13;4.47;;;3.50;;
84411;SDS011;74609;44.028;20.950;2024-03-23T12:40:40;7.45;;;3.58;;
84411;SDS011;74609;44.028;20.950;2024-03-23T12:43:06;4.18;;;3.22;;
84411;SDS011;74609;44.028;20.950;2024-03-23T12:45:32;4.30;;;3.55;;
84411;SDS011;74609;44.028;20.950;2024-03-23T12:47:59;5.03;;;3.53;;
84411;SDS011;74609;44.028;20.950;2024-03-23T12:50:25;3.83;;;3.33;;
84411;SDS011;74609;44.028;20.950;2024-03-23T12:52:51;4.15;;;3.72;;
84411;SDS011;74609;44.028;20.950;2024-03-23T12:55:17;4.53;;;3.50;;
84411;SDS011;74609;44.028;20.950;2024-03-23T12:57:43;4.07;;;3.10;;
84411;SDS011;74609;44.028;20.950;2024-03-23T13:00:09;3.72;;;3.08;;
84411;SDS011;74609;44.028;20.950;2024-03-23T13:02:37;3.40;;;3.10;;
84411;SDS011;74609;44.028;20.950;2024-03-23T13:05:04;4.75;;;3.60;;
84411;SDS011;74609;44.028;20.950;2024-03-23T13:07:30;4.85;;;3.17;;
84411;SDS011;74609;44.028;20.950;2024-03-23T13:09:56;4.10;;;3.22;;
84411;SDS011;74609;44.028;20.950;2024-03-23T13:12:22;4.88;;;3.38;;
84411;SDS011;74609;44.028;20.950;2024-03-23T13:14:49;5.47;;;3.88;;
84411;SDS011;74609;44.028;20.950;2024-03-23T13:17:15;3.75;;;3.33;;
84411;SDS011;74609;44.028;20.950;2024-03-23T13:19:41;3.90;;;3.38;;
84411;SDS011;74609;44.028;20.950;2024-03-23T13:22:08;3.38;;;3.03;;
84411;SDS011;74609;44.028;20.950;2024-03-23T13:24:36;4.45;;;3.50;;
84411;SDS011;74609;44.028;20.950;2024-03-23T13:27:02;5.88;;;3.35;;
84411;SDS011;74609;44.028;20.950;2024-03-23T13:29:30;4.00;;;3.13;;
84411;SDS011;74609;44.028;20.950;2024-03-23T13:31:56;3.67;;;3.22;;
84411;SDS011;74609;44.028;20.950;2024-03-23T13:34:22;3.70;;;3.28;;
84411;SDS011;74609;44.028;20.950;2024-03-23T13:36:48;3.63;;;3.10;;
84411;SDS011;74609;44.028;20.950;2024-03-23T13:39:15;5.97;;;3.53;;
84411;SDS011;74609;44.028;20.950;2024-03-23T13:44:07;4.03;;;3.05;;
84411;SDS011;74609;44.028;20.950;2024-03-23T13:46:35;3.58;;;2.97;;
84411;SDS011;74609;44.028;20.950;2024-03-23T13:49:01;5.47;;;3.35;;
84411;SDS011;74609;44.028;20.950;2024-03-23T13:51:28;4.57;;;3.40;;
84411;SDS011;74609;44.028;20.950;2024-03-23T13:53:54;4.75;;;3.42;;
84411;SDS011;74609;44.028;20.950;2024-03-23T13:56:22;3.60;;;3.03;;
84411;SDS011;74609;44.028;20.950;2024-03-23T13:58:48;4.43;;;3.28;;
84411;SDS011;74609;44.028;20.950;2024-03-23T14:01:15;4.35;;;3.28;;
